Beverly Hills, CA (90209)

10:29 PM PST on February 20, 2017 (GMT -0800)
Laurel Canyon | | Change Station

Elev 1069 ft 34.11 °N, 118.38 °W | Updated 13 minutes ago

Overcast
Overcast
54.4 °F
Feels Like 54.4 °F
N
0.0
Wind Variable Wind from West

Today
High -- | Low -- °F
--% Chance of Precip.
Yesterday
High -- | Low -- °F
Precip. -- in
Pressure 30.32 in
Visibility 7.0 miles
Clouds Few 1400 ft
Mostly Cloudy 2900 ft
Overcast 7500 ft
Dew Point 54.0 °F
Humidity 100%
Rainfall 0.11 in
Snow Depth Not available.
6:32 AM 5:42 PM
Waning Crescent, 28% visible
METAR KSMO 210551Z AUTO 00000KT 7SM FEW014 BKN029 OVC075 14/14 A3032 RMK AO2 SLP266 60001 T01390139 10144 20133 51009 $
Pressure 30.32 in
Visibility 7.0 miles
Clouds Few 1400 ft
Mostly Cloudy 2900 ft
Overcast 7500 ft
Dew Point 54.0 °F
Humidity 100%
Rainfall 0.11 in
Snow Depth Not available.
6:32 AM 5:42 PM
Waning Crescent, 28% visible
METAR KSMO 210551Z AUTO 00000KT 7SM FEW014 BKN029 OVC075 14/14 A3032 RMK AO2 SLP266 60001 T01390139 10144 20133 51009 $

Get Your Daily Forecast Email!

Thanks for signing up!

Be on the lookout for a verification email in your inbox.

You'll start receiving the daily forecast at 8 AM.

×

10-Day Weather Forecast

Almanac

Astronomy

Feb. 20, 2017 Rise Set
Actual Time
Civil Twilight
Nautical Twilight
Astronomical Twilight
Moon
Length of Visible Light
Length of Day
Tomorrow will be .
, % of the Moon is Illuminated

Today's Extremes

State Highs State Lows

Community

WunderPhotos

Upload Photos

1,962,540 photos uploaded!

WunderBlog® & News

Nearby

Air Quality

  Air Quality AQ Index Pollutant
Not available.

Snow Depth

Station Depth Elevation

Earthquake Activity

City Distance Mag. Time & Date
Minimum magnitude displayed is 2.5.

Coastal Water Temperatures

Place Temperature

Stations

Nearby Weather Stations

Station Location Temp. Windchill Dew Point Humidity Wind Precip. Elev Updated Type
                   

Watches & Warnings

There are currently no watches in effect.